Time;durP1;ratioP1;P1;durP2;ratioP2;P2;SDS_P1;SDS_P2;PMS_P1;PMS_P2;Temp;Humidity;BMP_temperature;BMP_pressure;BME280_temperature;BME280_humidity;BME280_pressure;Samples;Min_cycle;Max_cycle;Signal;HPM_P1;HPM_P2
2022/05/26 00:00:01;;;;;;;33.38;10.65;;;14.00;99.90;;;;;;5043613;28;20125;-45
2022/05/26 00:02:28;;;;;;;38.92;10.13;;;14.00;99.90;;;;;;5006311;28;20136;-45
2022/05/26 00:04:54;;;;;;;35.08;11.20;;;14.00;99.90;;;;;;5043404;28;20581;-45
2022/05/26 00:07:19;;;;;;;27.55;11.00;;;14.00;99.90;;;;;;5022493;28;20060;-48
2022/05/26 00:09:45;;;;;;;39.58;11.07;;;14.00;99.90;;;;;;5045013;28;20057;-44
2022/05/26 00:12:12;;;;;;;37.67;11.52;;;14.00;99.90;;;;;;5042320;28;20045;-45
2022/05/26 00:14:40;;;;;;;37.83;10.40;;;14.00;99.90;;;;;;5038758;28;20488;-47
2022/05/26 00:17:06;;;;;;;41.85;10.95;;;14.00;99.90;;;;;;5043465;28;20491;-46
2022/05/26 00:19:32;;;;;;;39.08;10.88;;;14.00;99.90;;;;;;5042695;28;20087;-44
2022/05/26 00:21:58;;;;;;;38.55;10.85;;;14.10;99.90;;;;;;5044655;28;20048;-47
2022/05/26 00:24:24;;;;;;;34.55;10.23;;;14.10;99.90;;;;;;5024138;28;20558;-44
2022/05/26 00:26:49;;;;;;;29.75;12.02;;;14.10;99.90;;;;;;5038668;28;20057;-45
2022/05/26 00:29:15;;;;;;;31.00;11.13;;;14.10;99.90;;;;;;5043466;28;20463;-47
2022/05/26 00:31:43;;;;;;;32.03;10.73;;;14.10;99.90;;;;;;5043734;28;20593;-48
2022/05/26 00:34:09;;;;;;;37.10;11.35;;;14.10;99.90;;;;;;5023896;28;20049;-48
2022/05/26 00:36:38;;;;;;;37.25;12.60;;;14.10;99.90;;;;;;5043440;28;20139;-44
2022/05/26 00:39:17;;;;;;;41.88;12.02;;;14.10;99.90;;;;;;5030343;28;20128;-47
2022/05/26 00:41:53;;;;;;;41.90;12.63;;;14.10;99.90;;;;;;5042764;28;20059;-46
2022/05/26 00:44:20;;;;;;;41.60;11.13;;;14.10;99.90;;;;;;5023621;28;20048;-46
2022/05/26 00:47:04;;;;;;;41.58;11.13;;;14.10;99.90;;;;;;5042796;28;20064;-46
2022/05/26 00:49:45;;;;;;;44.22;12.32;;;14.10;99.90;;;;;;5043983;28;20045;-45
2022/05/26 00:52:35;;;;;;;37.13;11.90;;;14.10;99.90;;;;;;5046017;28;20068;-49
2022/05/26 00:55:07;;;;;;;37.83;11.43;;;14.00;99.90;;;;;;5039931;28;20488;-50
2022/05/26 00:57:46;;;;;;;46.10;11.93;;;14.00;99.90;;;;;;5043306;28;20481;-47
2022/05/26 01:00:21;;;;;;;42.88;12.07;;;14.00;99.90;;;;;;5041239;28;20161;-47
2022/05/26 01:03:03;;;;;;;41.22;12.75;;;14.00;99.90;;;;;;5043600;28;20052;-45
2022/05/26 01:05:35;;;;;;;37.83;11.25;;;14.00;99.90;;;;;;5043241;28;20186;-43
2022/05/26 01:08:01;;;;;;;46.90;12.25;;;13.90;99.90;;;;;;5018400;28;20304;-46
2022/05/26 01:10:27;;;;;;;43.80;11.38;;;13.80;99.90;;;;;;5043961;28;20053;-47
2022/05/26 01:12:55;;;;;;;45.10;12.10;;;13.90;99.90;;;;;;5043393;28;20047;-43
2022/05/26 01:15:22;;;;;;;44.42;10.40;;;13.80;99.90;;;;;;5043607;28;20072;-44
2022/05/26 01:18:23;;;;;;;46.83;11.30;;;13.80;99.90;;;;;;5044368;28;20421;-44
2022/05/26 01:21:07;;;;;;;40.40;10.50;;;13.80;99.90;;;;;;5029061;28;20049;-47
2022/05/26 01:23:54;;;;;;;44.13;10.88;;;13.80;99.90;;;;;;5042917;28;20415;-44
2022/05/26 01:26:28;;;;;;;36.22;11.52;;;13.70;99.90;;;;;;5044227;28;20128;-44
2022/05/26 01:28:54;;;;;;;40.10;9.75;;;13.70;99.90;;;;;;5044299;28;20048;-44
2022/05/26 01:31:38;;;;;;;43.75;11.43;;;13.70;99.90;;;;;;5042358;28;20048;-43
2022/05/26 01:34:33;;;;;;;44.50;11.65;;;13.60;99.90;;;;;;5041821;28;20460;-43
2022/05/26 01:37:02;;;;;;;44.55;11.23;;;13.60;99.90;;;;;;5042729;28;20514;-48
2022/05/26 01:39:37;;;;;;;41.78;10.90;;;13.60;99.90;;;;;;5042293;28;20049;-49
2022/05/26 01:42:23;;;;;;;42.00;11.68;;;13.60;99.90;;;;;;5037435;28;20045;-44
2022/05/26 01:45:11;;;;;;;41.72;10.15;;;13.60;99.90;;;;;;5042843;28;20131;-45
2022/05/26 01:47:55;;;;;;;40.03;10.80;;;13.60;99.90;;;;;;5021570;28;20541;-44
2022/05/26 01:50:30;;;;;;;34.55;10.00;;;13.70;99.90;;;;;;5043205;28;20060;-47
2022/05/26 01:53:27;;;;;;;39.83;10.88;;;13.60;99.90;;;;;;5041097;28;20036;-42
2022/05/26 01:56:13;;;;;;;42.63;9.75;;;13.60;99.90;;;;;;5040523;28;20111;-46
2022/05/26 01:58:54;;;;;;;41.30;11.35;;;13.60;99.90;;;;;;5042230;28;20095;-47
2022/05/26 02:01:26;;;;;;;45.42;11.45;;;13.70;99.90;;;;;;5017412;28;20099;-45
2022/05/26 02:03:53;;;;;;;40.08;10.35;;;13.60;99.90;;;;;;5042233;28;20056;-46
2022/05/26 02:06:26;;;;;;;35.90;9.90;;;13.60;99.90;;;;;;5042318;28;20049;-48
2022/05/26 02:09:15;;;;;;;36.88;9.43;;;13.60;99.90;;;;;;5023947;28;20084;-48
2022/05/26 02:11:47;;;;;;;44.55;9.25;;;13.60;99.90;;;;;;5023948;28;20495;-45
2022/05/26 02:14:17;;;;;;;39.05;9.65;;;13.60;99.90;;;;;;5023674;28;20068;-45
2022/05/26 02:16:53;;;;;;;37.70;9.45;;;13.60;99.90;;;;;;5041965;28;20055;-44
2022/05/26 02:19:28;;;;;;;36.42;9.15;;;13.60;99.90;;;;;;5032423;28;20045;-45
2022/05/26 02:22:14;;;;;;;28.73;8.23;;;13.60;99.90;;;;;;5023186;28;20064;-46
2022/05/26 02:24:48;;;;;;;37.28;9.00;;;13.60;99.90;;;;;;5042800;28;20492;-44
2022/05/26 02:27:15;;;;;;;30.60;8.73;;;13.60;99.90;;;;;;5022125;28;20407;-47
2022/05/26 02:29:53;;;;;;;33.03;7.90;;;13.70;99.90;;;;;;5041074;28;20048;-46
2022/05/26 02:32:24;;;;;;;46.35;11.60;;;13.60;99.90;;;;;;5016817;28;20049;-45
2022/05/26 02:34:52;;;;;;;32.65;8.43;;;13.60;99.90;;;;;;5040096;28;20502;-45
2022/05/26 02:37:19;;;;;;;39.67;8.10;;;13.60;99.90;;;;;;5042824;28;20049;-44
2022/05/26 02:39:45;;;;;;;24.17;6.72;;;13.60;99.90;;;;;;5034503;28;20088;-44
2022/05/26 02:42:12;;;;;;;22.80;6.50;;;13.60;99.90;;;;;;5042672;28;20085;-45
2022/05/26 02:44:39;;;;;;;31.83;6.80;;;13.60;99.90;;;;;;5042747;28;20127;-44
2022/05/26 02:47:27;;;;;;;33.08;7.07;;;13.60;99.90;;;;;;5043086;28;20195;-45
2022/05/26 02:50:18;;;;;;;17.70;5.47;;;13.60;99.90;;;;;;5039303;28;20071;-46
2022/05/26 02:53:12;;;;;;;19.27;5.45;;;13.50;99.90;;;;;;5041028;28;20098;-47
2022/05/26 02:55:59;;;;;;;18.80;4.80;;;13.50;99.90;;;;;;5040444;28;20156;-45
2022/05/26 02:58:46;;;;;;;15.10;5.00;;;13.50;99.90;;;;;;5041752;28;20052;-44
2022/05/26 03:01:23;;;;;;;17.83;4.75;;;13.50;99.90;;;;;;5035822;28;20527;-46
2022/05/26 03:04:07;;;;;;;17.73;3.78;;;13.40;99.90;;;;;;5022032;28;20056;-45
2022/05/26 03:06:40;;;;;;;11.57;3.47;;;13.40;99.90;;;;;;5042300;28;20039;-43
2022/05/26 03:09:15;;;;;;;;;;;13.40;99.90;;;;;;5022313;28;20092;-45
2022/05/26 03:11:56;;;;;;;13.63;4.13;;;13.30;99.90;;;;;;5045937;28;20761;-45
2022/05/26 03:14:23;;;;;;;16.17;4.47;;;13.30;99.90;;;;;;5045642;28;20045;-46
2022/05/26 03:16:51;;;;;;;14.80;4.22;;;13.30;99.90;;;;;;5027886;28;20858;-44
2022/05/26 03:19:17;;;;;;;18.40;4.47;;;13.30;99.90;;;;;;5048622;28;20044;-47
2022/05/26 03:21:47;;;;;;;14.90;4.18;;;13.20;99.90;;;;;;5041783;28;20084;-48
2022/05/26 03:24:13;;;;;;;13.43;4.10;;;13.20;99.90;;;;;;5042955;28;20053;-46
2022/05/26 03:26:39;;;;;;;12.70;3.28;;;13.10;99.90;;;;;;5045832;28;20048;-45
2022/05/26 03:29:05;;;;;;;13.18;3.35;;;13.10;99.90;;;;;;5046203;28;20064;-44
2022/05/26 03:31:31;;;;;;;18.48;3.53;;;13.00;99.90;;;;;;5045134;28;20119;-44
2022/05/26 03:42:16;;;;;;;14.80;3.00;;;12.80;99.90;;;;;;5036909;28;20137;-45
2022/05/26 03:44:43;;;;;;;16.35;3.10;;;12.80;99.90;;;;;;5042464;28;20099;-46
2022/05/26 03:47:09;;;;;;;11.68;2.90;;;12.70;99.90;;;;;;5043143;28;20064;-46
2022/05/26 03:49:35;;;;;;;14.00;3.15;;;12.70;99.90;;;;;;5044745;28;20415;-46
2022/05/26 03:52:02;;;;;;;10.15;2.53;;;12.70;99.90;;;;;;5043815;28;20459;-45
2022/05/26 03:54:33;;;;;;;12.45;2.97;;;12.70;99.90;;;;;;5041958;28;20041;-46
2022/05/26 03:56:59;;;;;;;15.68;3.58;;;12.80;99.90;;;;;;5044559;28;20047;-44
2022/05/26 03:59:24;;;;;;;14.25;2.58;;;12.80;99.90;;;;;;5041438;28;20044;-46
2022/05/26 04:01:56;;;;;;;8.23;1.95;;;12.80;99.90;;;;;;5043888;28;20045;-46
2022/05/26 04:04:22;;;;;;;13.60;2.88;;;12.80;99.90;;;;;;5045417;28;20044;-47
2022/05/26 04:06:53;;;;;;;6.82;2.35;;;13.00;99.90;;;;;;5042754;28;20045;-48
2022/05/26 04:09:21;;;;;;;9.77;1.90;;;13.10;99.90;;;;;;5045050;28;20048;-46
2022/05/26 04:11:47;;;;;;;7.05;2.40;;;13.20;99.90;;;;;;5042626;28;20036;-46
2022/05/26 04:14:13;;;;;;;6.70;2.65;;;13.40;99.90;;;;;;5041758;28;20051;-49
2022/05/26 04:16:39;;;;;;;9.30;2.17;;;13.40;99.90;;;;;;5043792;28;20047;-48
2022/05/26 04:19:05;;;;;;;8.30;2.03;;;13.40;99.90;;;;;;5045992;28;20048;-46
2022/05/26 04:21:31;;;;;;;10.73;1.90;;;13.40;99.90;;;;;;5044053;28;20045;-45
2022/05/26 04:23:56;;;;;;;9.73;1.83;;;13.50;99.90;;;;;;5042271;28;20156;-43
2022/05/26 04:26:22;;;;;;;4.95;1.77;;;13.70;99.90;;;;;;5044617;28;20057;-47
2022/05/26 04:28:48;;;;;;;7.38;1.90;;;14.20;99.90;;;;;;5044857;28;20049;-48
2022/05/26 04:31:13;;;;;;;7.57;1.70;;;14.40;99.90;;;;;;5046022;28;20064;-44
2022/05/26 04:33:39;;;;;;;8.80;2.10;;;14.30;99.90;;;;;;5046864;28;20055;-44
2022/05/26 04:36:06;;;;;;;9.35;2.10;;;14.20;99.90;;;;;;5025018;28;20052;-51
2022/05/26 04:38:37;;;;;;;7.88;2.95;;;14.10;99.90;;;;;;5040765;28;20065;-48
2022/05/26 04:41:06;;;;;;;7.00;1.60;;;14.50;99.90;;;;;;5040037;28;20037;-46
2022/05/26 04:43:33;;;;;;;8.00;2.05;;;15.60;99.90;;;;;;5021782;28;20052;-47
2022/05/26 04:45:59;;;;;;;10.57;2.25;;;17.00;99.90;;;;;;5043765;28;20064;-45
2022/05/26 04:48:25;;;;;;;7.60;1.83;;;18.40;99.90;;;;;;5043089;28;20522;-48
2022/05/26 04:50:52;;;;;;;6.70;1.90;;;19.70;99.90;;;;;;5042937;28;20442;-44
2022/05/26 04:53:19;;;;;;;3.08;1.80;;;20.80;99.90;;;;;;5038829;28;20146;-46
2022/05/26 04:55:46;;;;;;;7.43;1.83;;;21.50;99.90;;;;;;5043573;28;20049;-49
2022/05/26 04:58:12;;;;;;;8.35;1.88;;;21.90;99.90;;;;;;5043225;28;20057;-44
2022/05/26 05:00:38;;;;;;;7.35;1.92;;;21.30;99.90;;;;;;5044437;28;20055;-45
2022/05/26 05:03:04;;;;;;;4.93;1.90;;;20.50;99.90;;;;;;5021842;28;20407;-45
2022/05/26 05:05:30;;;;;;;6.05;1.52;;;20.50;99.90;;;;;;5042201;28;20041;-43
2022/05/26 05:07:55;;;;;;;8.05;2.42;;;20.30;99.90;;;;;;5020580;28;20064;-45
2022/05/26 05:10:21;;;;;;;8.38;1.90;;;20.50;99.90;;;;;;5042417;28;20041;-44
2022/05/26 05:12:49;;;;;;;8.32;1.70;;;20.90;99.90;;;;;;5042716;28;20270;-45
2022/05/26 05:15:21;;;;;;;8.25;1.88;;;20.70;99.90;;;;;;5021401;28;20124;-45
2022/05/26 05:17:51;;;;;;;9.40;1.63;;;19.90;99.90;;;;;;5043436;28;20056;-47
2022/05/26 05:20:16;;;;;;;6.25;1.85;;;19.20;99.90;;;;;;5042995;28;20124;-47
2022/05/26 05:22:49;;;;;;;4.75;1.38;;;18.80;99.90;;;;;;5041218;28;20063;-46
2022/05/26 05:25:20;;;;;;;7.63;1.70;;;18.70;99.90;;;;;;5043552;28;20388;-46
2022/05/26 05:28:04;;;;;;;4.47;1.40;;;18.70;99.90;;;;;;5044381;28;20541;-46
2022/05/26 05:30:42;;;;;;;5.57;1.50;;;18.40;99.90;;;;;;5044352;28;20128;-45
2022/05/26 05:33:21;;;;;;;6.47;1.80;;;18.00;99.90;;;;;;5042648;28;20435;-45
2022/05/26 05:35:53;;;;;;;4.50;1.55;;;17.70;99.90;;;;;;5042995;28;20053;-47
2022/05/26 05:38:19;;;;;;;5.28;1.50;;;17.30;99.90;;;;;;5038693;28;20175;-47
2022/05/26 05:40:46;;;;;;;5.90;1.63;;;17.20;99.90;;;;;;5040674;28;20055;-47
2022/05/26 05:43:12;;;;;;;8.00;1.63;;;17.20;99.90;;;;;;5040512;28;20092;-46
2022/05/26 05:45:39;;;;;;;8.07;1.70;;;17.90;99.90;;;;;;5046569;28;20096;-45
2022/05/26 05:48:06;;;;;;;8.77;2.13;;;19.50;99.90;;;;;;5043336;28;20060;-47
2022/05/26 05:50:33;;;;;;;7.82;2.28;;;21.40;99.90;;;;;;5043457;28;20059;-46
2022/05/26 05:52:59;;;;;;;6.78;1.73;;;23.00;99.90;;;;;;5025129;28;20053;-45
2022/05/26 05:55:25;;;;;;;5.10;1.67;;;24.40;99.90;;;;;;5024326;28;20064;-45
2022/05/26 05:57:51;;;;;;;6.80;2.28;;;25.70;99.40;;;;;;5041730;28;20045;-47
2022/05/26 06:00:18;;;;;;;5.93;1.50;;;26.30;98.10;;;;;;5023472;28;20120;-46
2022/05/26 06:02:44;;;;;;;5.20;1.35;;;27.00;95.80;;;;;;5041822;28;20345;-48
2022/05/26 06:05:10;;;;;;;6.88;1.58;;;27.30;95.30;;;;;;5040801;28;20826;-46
2022/05/26 06:07:39;;;;;;;5.40;2.00;;;28.00;94.40;;;;;;5023819;28;20059;-45
2022/05/26 06:10:12;;;;;;;7.38;1.83;;;29.10;95.00;;;;;;5039632;28;20045;-48
2022/05/26 06:12:39;;;;;;;4.72;1.48;;;28.40;90.90;;;;;;5043231;28;20053;-47
2022/05/26 06:15:06;;;;;;;4.35;1.58;;;26.70;91.60;;;;;;5041772;28;20163;-47
2022/05/26 06:17:31;;;;;;;5.35;1.40;;;25.20;93.60;;;;;;5041197;28;20600;-44
2022/05/26 06:20:10;;;;;;;5.10;1.50;;;23.40;94.40;;;;;;5041789;28;20044;-45
2022/05/26 06:22:40;;;;;;;5.50;1.45;;;22.20;96.00;;;;;;5042027;28;20048;-46
2022/05/26 06:25:06;;;;;;;3.97;1.48;;;21.20;97.50;;;;;;5034547;28;20545;-47
2022/05/26 06:30:20;;;;;;;10.15;2.03;;;19.90;99.90;;;;;;5040263;28;20059;-46
2022/05/26 06:38:18;;;;;;;6.55;1.60;;;18.40;99.90;;;;;;5033408;28;20063;-47
2022/05/26 06:40:44;;;;;;;7.55;1.60;;;18.20;99.90;;;;;;5021303;28;20052;-47
2022/05/26 06:43:10;;;;;;;7.72;1.50;;;18.20;99.90;;;;;;5041241;28;20056;-50
2022/05/26 06:45:36;;;;;;;6.13;1.80;;;18.10;99.90;;;;;;5036020;28;20136;-48
2022/05/26 06:48:03;;;;;;;7.22;2.47;;;17.90;99.90;;;;;;5037825;28;20515;-48
2022/05/26 06:50:29;;;;;;;4.57;1.60;;;17.90;99.90;;;;;;5040770;28;20399;-45
2022/05/26 06:53:00;;;;;;;7.10;2.00;;;17.80;99.90;;;;;;5041873;28;20053;-45
2022/05/26 06:55:26;;;;;;;8.57;2.30;;;17.80;99.90;;;;;;5043263;28;20040;-46
2022/05/26 06:57:52;;;;;;;5.38;1.15;;;17.70;99.90;;;;;;5042686;28;20106;-48
2022/05/26 07:00:18;;;;;;;6.70;1.70;;;17.70;99.90;;;;;;5044415;28;20219;-48
2022/05/26 07:02:45;;;;;;;8.65;1.63;;;17.80;99.90;;;;;;5039288;28;20465;-46
2022/05/26 07:05:12;;;;;;;9.75;2.50;;;17.90;99.90;;;;;;5024675;28;20048;-47
2022/05/26 07:07:40;;;;;;;8.88;1.83;;;18.20;99.90;;;;;;5042109;28;20118;-48
2022/05/26 07:10:08;;;;;;;4.95;2.17;;;18.50;99.90;;;;;;5041874;28;20124;-47
2022/05/26 07:12:35;;;;;;;4.57;1.75;;;18.60;99.90;;;;;;5021530;28;20099;-46
2022/05/26 07:15:07;;;;;;;8.60;2.25;;;19.00;99.90;;;;;;5042170;28;20048;-45
2022/05/26 07:17:33;;;;;;;5.35;1.67;;;19.30;99.90;;;;;;5040248;28;20079;-47
2022/05/26 07:19:59;;;;;;;7.00;1.90;;;19.40;99.90;;;;;;5038826;28;20095;-45
2022/05/26 07:22:25;;;;;;;4.13;1.52;;;19.30;99.90;;;;;;5039895;28;20053;-44
2022/05/26 07:24:51;;;;;;;9.15;2.10;;;19.20;99.90;;;;;;5040439;28;20056;-47
2022/05/26 07:27:18;;;;;;;8.85;1.70;;;19.10;99.90;;;;;;5042317;28;20049;-46
2022/05/26 07:29:44;;;;;;;9.45;1.63;;;19.10;99.90;;;;;;5043174;28;20146;-46
2022/05/26 07:32:09;;;;;;;7.50;1.95;;;19.10;99.90;;;;;;5040291;28;20124;-47
2022/05/26 07:34:35;;;;;;;8.45;2.75;;;18.90;99.90;;;;;;5041870;28;20049;-46
2022/05/26 07:42:55;;;;;;;5.50;1.63;;;18.90;99.90;;;;;;5031529;28;20043;-45
2022/05/26 07:45:22;;;;;;;4.47;1.65;;;19.30;99.90;;;;;;5027609;28;20037;-45
2022/05/26 07:47:47;;;;;;;5.78;1.50;;;19.60;99.90;;;;;;5030722;28;20518;-45
2022/05/26 07:50:21;;;;;;;7.10;1.50;;;19.80;99.90;;;;;;5039806;28;20052;-46
2022/05/26 07:52:48;;;;;;;6.65;1.80;;;20.00;99.90;;;;;;5019562;28;20115;-44
2022/05/26 07:55:14;;;;;;;5.43;1.55;;;20.00;99.90;;;;;;5021569;28;20060;-48
2022/05/26 07:57:40;;;;;;;8.75;1.88;;;20.20;99.90;;;;;;5016433;28;20088;-47
2022/05/26 08:00:07;;;;;;;6.47;1.58;;;20.40;99.90;;;;;;5031519;28;20571;-46
2022/05/26 08:02:32;;;;;;;5.10;1.70;;;20.70;99.90;;;;;;5041595;28;20222;-45
2022/05/26 08:04:58;;;;;;;5.72;1.80;;;20.70;99.90;;;;;;5046460;28;20513;-47
2022/05/26 08:07:25;;;;;;;7.25;1.98;;;20.70;99.90;;;;;;5045574;28;20060;-48
2022/05/26 08:09:51;;;;;;;6.07;1.45;;;20.80;99.90;;;;;;5026017;28;20057;-46
2022/05/26 08:12:17;;;;;;;6.03;1.88;;;20.80;99.90;;;;;;5045319;28;20047;-47
2022/05/26 08:14:46;;;;;;;5.63;1.73;;;20.70;99.90;;;;;;5045500;28;20045;-46
2022/05/26 08:17:13;;;;;;;4.80;1.60;;;20.50;99.90;;;;;;5048181;28;20132;-48
2022/05/26 08:19:41;;;;;;;7.28;1.95;;;20.40;99.90;;;;;;5040975;28;20513;-50
2022/05/26 08:22:07;;;;;;;4.72;1.55;;;20.20;99.90;;;;;;5043066;28;20048;-49
2022/05/26 08:24:33;;;;;;;8.15;1.70;;;19.90;99.90;;;;;;5042037;28;20044;-46
2022/05/26 08:26:59;;;;;;;8.35;2.33;;;19.90;99.90;;;;;;5040102;28;20175;-46
2022/05/26 08:29:24;;;;;;;8.27;1.88;;;20.00;99.90;;;;;;5025822;28;20037;-47
2022/05/26 08:31:51;;;;;;;6.07;1.80;;;20.10;99.90;;;;;;5040962;28;20134;-47
2022/05/26 08:34:17;;;;;;;5.68;1.83;;;20.20;99.90;;;;;;5041624;28;20080;-46
2022/05/26 08:36:43;;;;;;;6.53;1.80;;;20.30;99.90;;;;;;5041263;28;20427;-46
2022/05/26 08:39:09;;;;;;;5.45;1.67;;;20.00;99.90;;;;;;5041044;28;20053;-44
2022/05/26 08:41:46;;;;;;;9.23;2.10;;;19.90;99.90;;;;;;5032158;28;20045;-45
2022/05/26 08:44:36;;;;;;;6.40;1.70;;;19.90;99.90;;;;;;5033954;28;20044;-46
2022/05/26 08:47:40;;;;;;;6.47;1.35;;;19.70;99.90;;;;;;5036372;28;20052;-46
2022/05/26 08:50:10;;;;;;;6.13;1.67;;;19.70;99.90;;;;;;4935570;28;20062;-45
2022/05/26 08:53:03;;;;;;;6.40;1.83;;;19.60;99.90;;;;;;4952791;28;20474;-44
2022/05/26 08:55:32;;;;;;;8.07;2.00;;;19.50;99.90;;;;;;4943160;28;20556;-44
2022/05/26 08:58:18;;;;;;;6.22;1.50;;;19.40;99.90;;;;;;4959924;28;20589;-46
2022/05/26 09:00:49;;;;;;;7.43;1.75;;;19.40;99.90;;;;;;4958069;28;20426;-45
2022/05/26 09:03:33;;;;;;;6.45;1.50;;;19.30;99.90;;;;;;4954165;28;20094;-46
2022/05/26 09:06:16;;;;;;;8.57;1.90;;;19.50;99.90;;;;;;4960556;28;20094;-46
2022/05/26 09:14:28;;;;;;;7.45;1.90;;;19.60;99.90;;;;;;4961038;28;20103;-46
2022/05/26 09:17:01;;;;;;;4.75;1.45;;;19.60;99.90;;;;;;4943807;28;20543;-46
2022/05/26 09:19:55;;;;;;;4.60;1.60;;;19.70;99.90;;;;;;4943594;28;20070;-45
2022/05/26 09:22:40;;;;;;;6.97;1.73;;;20.00;99.90;;;;;;4955370;28;20510;-46
2022/05/26 09:25:11;;;;;;;7.13;1.70;;;20.20;99.90;;;;;;4970815;28;20100;-47
2022/05/26 09:27:39;;;;;;;8.07;1.65;;;20.10;99.90;;;;;;5042435;28;20107;-44
2022/05/26 09:30:21;;;;;;;6.63;1.80;;;20.20;99.90;;;;;;5038716;28;20075;-46
2022/05/26 09:32:47;;;;;;;7.45;1.45;;;20.40;99.90;;;;;;5031521;28;20050;-45
2022/05/26 09:35:18;;;;;;;5.57;1.65;;;20.30;99.90;;;;;;5036699;28;20044;-44
2022/05/26 09:37:46;;;;;;;4.68;1.58;;;20.00;99.90;;;;;;5037598;28;20057;-45
2022/05/26 09:40:17;;;;;;;6.15;1.70;;;19.90;99.90;;;;;;5033567;28;20178;-45
2022/05/26 09:42:45;;;;;;;6.05;1.75;;;19.90;99.90;;;;;;5031838;28;20090;-46
2022/05/26 09:45:15;;;;;;;5.78;1.67;;;19.80;99.90;;;;;;5034677;28;20041;-46
2022/05/26 09:47:46;;;;;;;5.45;1.92;;;19.70;99.90;;;;;;5031417;28;20328;-54
2022/05/26 09:50:33;;;;;;;5.07;1.58;;;19.70;99.90;;;;;;5040654;28;20059;-45
2022/05/26 09:53:00;;;;;;;7.85;2.20;;;19.60;99.90;;;;;;4999002;28;20059;-46
2022/05/26 09:55:55;;;;;;;7.38;2.00;;;19.30;99.90;;;;;;5041617;28;20075;-48
2022/05/26 09:58:34;;;;;;;5.90;1.70;;;19.10;99.90;;;;;;5014731;28;20080;-48
2022/05/26 10:01:11;;;;;;;6.93;1.83;;;19.40;99.90;;;;;;5036762;28;20518;-45
2022/05/26 10:03:36;;;;;;;7.32;1.98;;;19.60;99.90;;;;;;5037003;28;20053;-44
2022/05/26 10:06:41;;;;;;;7.13;2.13;;;19.70;99.90;;;;;;5040372;28;20052;-45
2022/05/26 10:09:16;;;;;;;6.72;2.00;;;19.80;99.90;;;;;;4958867;28;20102;-45
2022/05/26 10:12:01;;;;;;;4.78;1.92;;;20.10;99.90;;;;;;4959491;28;21526;-46
2022/05/26 10:14:51;;;;;;;7.28;2.00;;;20.10;99.90;;;;;;4936551;28;20063;-50
2022/05/26 10:17:23;;;;;;;8.88;1.83;;;20.30;99.90;;;;;;4958036;28;20051;-46
2022/05/26 10:20:45;;;;;;;4.90;1.60;;;20.80;99.90;;;;;;4952712;28;20055;-45
2022/05/26 10:23:51;;;;;;;5.22;1.30;;;21.00;99.90;;;;;;4902127;29;20142;-46
2022/05/26 10:26:29;;;;;;;8.02;1.50;;;21.00;99.90;;;;;;4884104;29;20107;-47
2022/05/26 10:28:54;;;;;;;4.53;1.70;;;21.10;99.90;;;;;;4905860;29;20482;-48
2022/05/26 10:31:52;;;;;;;4.63;1.52;;;21.10;99.90;;;;;;4902329;29;20063;-45
2022/05/26 10:34:24;;;;;;;5.03;1.75;;;20.80;99.90;;;;;;4902604;29;20056;-46
2022/05/26 10:36:52;;;;;;;7.47;1.40;;;20.50;99.90;;;;;;4897780;29;20103;-47
2022/05/26 10:39:42;;;;;;;9.25;1.85;;;20.60;99.90;;;;;;4898601;29;20133;-45
2022/05/26 10:42:23;;;;;;;5.80;1.65;;;20.90;99.90;;;;;;4902341;28;20730;-46
2022/05/26 10:45:19;;;;;;;7.50;2.13;;;21.00;99.90;;;;;;4950079;28;20059;-44
2022/05/26 10:48:00;;;;;;;6.20;1.52;;;21.20;99.90;;;;;;4959944;28;20503;-47
2022/05/26 10:51:05;;;;;;;4.95;1.85;;;21.30;99.90;;;;;;4948818;28;20055;-45
2022/05/26 10:53:44;;;;;;;4.90;2.03;;;21.30;99.90;;;;;;4970800;28;20154;-48
2022/05/26 10:56:42;;;;;;;7.32;1.38;;;21.20;99.90;;;;;;5044186;28;20084;-46
2022/05/26 10:59:21;;;;;;;7.57;2.40;;;21.20;99.90;;;;;;5042537;28;20365;-47
2022/05/26 11:01:57;;;;;;;5.13;1.63;;;21.20;99.90;;;;;;5041024;28;20053;-47
2022/05/26 11:04:40;;;;;;;6.82;1.73;;;21.30;99.90;;;;;;5041149;28;20084;-45
2022/05/26 11:07:12;;;;;;;5.93;1.90;;;21.10;99.90;;;;;;5014241;28;20140;-47
2022/05/26 11:09:47;;;;;;;8.13;1.93;;;20.80;99.90;;;;;;5033511;28;20060;-45
2022/05/26 11:12:47;;;;;;;4.78;2.40;;;20.70;99.90;;;;;;5020997;28;20424;-45
2022/05/26 11:18:25;;;;;;;5.22;1.70;;;20.70;99.90;;;;;;5037198;28;20552;-46
2022/05/26 11:20:54;;;;;;;5.38;1.77;;;21.00;99.90;;;;;;5040830;28;20081;-45
2022/05/26 11:23:21;;;;;;;8.90;2.25;;;21.00;99.90;;;;;;5039943;28;20358;-44
2022/05/26 11:26:02;;;;;;;4.30;1.83;;;20.80;99.90;;;;;;5033773;28;20064;-45
2022/05/26 11:28:39;;;;;;;5.45;2.00;;;20.80;99.90;;;;;;5040430;28;20041;-46
2022/05/26 11:37:03;;;;;;;8.98;1.70;;;20.30;99.90;;;;;;5044545;28;20649;-45
2022/05/26 11:39:39;;;;;;;6.32;2.25;;;20.30;99.90;;;;;;5036374;28;20507;-44
2022/05/26 11:42:10;;;;;;;7.05;1.65;;;20.40;99.90;;;;;;5044559;28;20044;-47
2022/05/26 11:44:45;;;;;;;9.65;2.13;;;20.40;99.90;;;;;;5043985;28;20135;-47
2022/05/26 11:47:48;;;;;;;8.10;1.75;;;20.30;99.90;;;;;;5045711;28;20511;-45
2022/05/26 11:50:44;;;;;;;5.03;1.70;;;20.10;99.90;;;;;;5037293;28;20057;-46
2022/05/26 11:53:35;;;;;;;8.82;1.80;;;20.10;99.90;;;;;;5044650;28;20053;-45
2022/05/26 11:56:23;;;;;;;9.23;2.30;;;20.00;99.90;;;;;;5044874;28;20151;-47
2022/05/26 11:59:23;;;;;;;8.48;1.67;;;19.90;99.90;;;;;;5023344;28;20053;-45
2022/05/26 12:01:58;;;;;;;8.70;2.25;;;20.10;99.90;;;;;;5038909;28;20052;-44
2022/05/26 12:04:49;;;;;;;6.78;1.95;;;20.20;99.90;;;;;;5045499;28;20525;-46
2022/05/26 12:07:17;;;;;;;7.32;2.95;;;20.20;99.90;;;;;;5026213;28;20049;-50
2022/05/26 12:09:50;;;;;;;10.40;1.90;;;20.10;99.90;;;;;;5043406;28;20102;-46
2022/05/26 12:12:19;;;;;;;9.73;1.80;;;19.90;99.90;;;;;;5044191;28;20048;-49
2022/05/26 12:14:50;;;;;;;9.20;2.75;;;19.90;99.90;;;;;;5042244;28;20094;-48
2022/05/26 12:17:32;;;;;;;7.90;2.35;;;19.80;99.90;;;;;;5034865;28;20095;-48
2022/05/26 12:20:03;;;;;;;6.70;2.58;;;19.70;99.90;;;;;;5036743;28;20040;-47
2022/05/26 12:22:39;;;;;;;7.53;2.03;;;19.60;99.90;;;;;;5034168;28;20072;-52
2022/05/26 12:25:39;;;;;;;8.57;2.65;;;19.70;99.90;;;;;;5012480;28;20407;-47
2022/05/26 12:28:11;;;;;;;5.25;1.98;;;19.80;99.90;;;;;;4957457;28;20525;-46
2022/05/26 12:30:46;;;;;;;10.13;3.13;;;20.00;99.90;;;;;;4958735;28;20141;-44
2022/05/26 12:33:18;;;;;;;8.30;2.20;;;20.20;99.90;;;;;;4957162;28;20840;-45
2022/05/26 12:35:52;;;;;;;5.45;1.52;;;20.30;99.90;;;;;;4955335;28;20157;-44
2022/05/26 12:38:51;;;;;;;10.10;2.10;;;20.40;99.90;;;;;;4955662;28;20050;-46
2022/05/26 12:41:38;;;;;;;7.68;2.00;;;20.40;99.90;;;;;;4956677;28;20066;-45
2022/05/26 12:44:34;;;;;;;6.63;2.28;;;20.30;99.90;;;;;;4958256;28;20042;-46
2022/05/26 12:47:36;;;;;;;6.20;2.10;;;20.30;99.90;;;;;;4939221;28;20443;-47
2022/05/26 12:50:19;;;;;;;6.10;2.10;;;20.30;99.90;;;;;;4953582;28;20043;-46
2022/05/26 12:52:57;;;;;;;12.10;2.00;;;20.40;99.90;;;;;;4955254;28;20065;-46
2022/05/26 12:56:00;;;;;;;9.50;2.15;;;20.40;99.90;;;;;;4954529;28;20425;-47
2022/05/26 12:58:32;;;;;;;6.00;1.88;;;20.30;99.90;;;;;;4957569;28;20062;-46
2022/05/26 13:00:57;;;;;;;7.72;2.22;;;20.20;99.90;;;;;;4954599;28;20082;-46
2022/05/26 13:03:42;;;;;;;6.90;2.10;;;20.00;99.90;;;;;;4953857;28;20726;-45
2022/05/26 13:06:12;;;;;;;7.13;2.10;;;19.90;99.90;;;;;;5024125;28;20057;-48
2022/05/26 13:09:00;;;;;;;8.38;2.28;;;19.80;99.90;;;;;;5027788;28;20405;-45
2022/05/26 13:11:32;;;;;;;6.88;2.00;;;19.80;99.90;;;;;;5026777;28;20581;-45
2022/05/26 13:14:15;;;;;;;9.02;2.05;;;19.70;99.90;;;;;;5027421;28;20041;-46
2022/05/26 13:16:42;;;;;;;10.40;2.70;;;19.60;99.90;;;;;;5027256;28;20060;-48
2022/05/26 13:19:17;;;;;;;10.93;3.35;;;19.50;99.90;;;;;;5012085;28;20195;-45
2022/05/26 13:21:52;;;;;;;9.00;2.15;;;19.40;99.90;;;;;;5015051;28;20064;-46
2022/05/26 13:24:27;;;;;;;11.10;2.58;;;19.50;99.90;;;;;;5018516;28;20436;-47
2022/05/26 13:26:57;;;;;;;11.75;2.70;;;19.40;99.90;;;;;;5016949;28;20059;-45
2022/05/26 13:29:24;;;;;;;9.80;2.65;;;19.50;99.90;;;;;;5029597;28;20056;-45
2022/05/26 13:34:47;;;;;;;15.65;5.18;;;19.50;99.90;;;;;;5028896;28;20072;-46
2022/05/26 13:37:29;;;;;;;10.27;2.75;;;19.60;99.90;;;;;;5013876;28;20065;-45
2022/05/26 13:40:03;;;;;;;10.60;3.65;;;19.60;99.90;;;;;;5037628;28;20530;-49
2022/05/26 13:42:30;;;;;;;7.40;2.75;;;19.40;99.90;;;;;;5033275;28;20060;-49
2022/05/26 13:44:56;;;;;;;6.10;2.25;;;19.20;99.90;;;;;;5030599;28;20048;-45
2022/05/26 13:47:22;;;;;;;9.55;2.30;;;19.10;99.90;;;;;;5032266;28;20055;-45
2022/05/26 13:50:04;;;;;;;10.93;3.20;;;19.10;99.90;;;;;;5031321;28;20075;-44
2022/05/26 13:52:32;;;;;;;9.68;2.90;;;19.30;99.90;;;;;;5012089;28;20056;-46
2022/05/26 13:55:03;;;;;;;9.75;2.78;;;19.10;99.90;;;;;;4992189;28;20095;-44